Terminal Aerodrome Forecast
Issued by NWS Wilmington, OH

Current Version | Previous Version | Graphics & Text | Print | Product List | Glossary On
Versions: 1 2 3 4 5 6 7 8 9 10 11 12 13 14 15
767
FTUS41 KILN 162340
TAFILN
TAF
KILN 162340Z 1700/1724 VRB05KT P6SM SCT050 SCT250
     FM170800 14004KT P6SM VCSH SCT060 BKN120
     FM171400 20010KT P6SM VCSH SCT050 BKN100
     FM171700 22010KT P6SM -SHRA VCTS BKN060CB
     FM172200 21011G19KT P6SM VCTS SCT050CB BKN090=

USA.gov is the U.S. government's official web portal to all federal, state and local government web resources and services.